createdAt,value
2022-10-07T00:06:47.241Z,100149.25
2022-10-07T00:17:13.741Z,100141.83
2022-10-07T00:27:41.965Z,100134.31
2022-10-07T00:38:10.238Z,100131.65
2022-10-07T00:48:39.330Z,100127.30
2022-10-07T00:59:07.761Z,100120.67
2022-10-07T01:09:35.829Z,100109.17
2022-10-07T01:20:30.558Z,100107.79
2022-10-07T01:31:03.644Z,100095.96
2022-10-07T01:41:32.755Z,100088.03
2022-10-07T01:52:34.431Z,100076.29
2022-10-07T02:03:34.271Z,100073.91
2022-10-07T02:14:09.532Z,100068.28
2022-10-07T02:24:40.374Z,100057.76
2022-10-07T02:35:17.423Z,100054.20
2022-10-07T02:45:51.112Z,100047.31
2022-10-07T02:56:22.253Z,100050.81
2022-10-07T03:06:50.191Z,100047.14
2022-10-07T03:17:18.213Z,100040.39
2022-10-07T03:27:48.614Z,100026.77
2022-10-07T03:38:16.427Z,100020.79
2022-10-07T03:48:44.935Z,100017.29
2022-10-07T03:59:12.964Z,100006.77
2022-10-07T04:09:41.170Z,99992.35
2022-10-07T04:20:11.022Z,99984.88
2022-10-07T04:30:43.922Z,99969.34
2022-10-07T04:41:12.242Z,99963.47
2022-10-07T04:51:40.276Z,99964.25
2022-10-07T05:02:08.410Z,99966.90
2022-10-07T05:12:37.034Z,99957.67
2022-10-07T05:23:05.106Z,99958.75
2022-10-07T05:33:33.323Z,99960.02
2022-10-07T05:44:01.505Z,99954.96
2022-10-07T05:54:29.529Z,99956.29
2022-10-07T06:04:57.490Z,99954.13
2022-10-07T06:15:25.609Z,99948.51
2022-10-07T06:25:59.421Z,99948.06
2022-10-07T06:36:27.922Z,99957.27
2022-10-07T06:46:55.997Z,99952.90
2022-10-07T06:57:44.945Z,99945.77
2022-10-07T07:08:12.402Z,99939.77
2022-10-07T07:18:40.461Z,99934.98
2022-10-07T07:29:07.637Z,99916.66
2022-10-07T07:39:36.063Z,99919.13
2022-10-07T07:50:13.120Z,99908.08
2022-10-07T08:00:41.228Z,99893.27
2022-10-07T08:11:11.427Z,99882.61
2022-10-07T08:21:39.853Z,99876.02
2022-10-07T08:32:07.972Z,99865.40
2022-10-07T08:42:41.574Z,99855.98
2022-10-07T08:53:16.934Z,99852.62
2022-10-07T09:03:53.273Z,99858.57
2022-10-07T09:14:29.202Z,99848.92
2022-10-07T09:25:16.391Z,99834.85
2022-10-07T09:35:57.411Z,99819.95
2022-10-07T09:46:47.794Z,99800.29
2022-10-07T09:57:31.698Z,99790.10
2022-10-07T10:08:03.123Z,99781.89
2022-10-07T10:18:37.958Z,99766.53
2022-10-07T10:29:26.593Z,99750.20
2022-10-07T10:40:07.454Z,99734.21
2022-10-07T10:50:49.221Z,99715.64
2022-10-07T11:01:28.444Z,99697.36
2022-10-07T11:11:56.938Z,99677.95
2022-10-07T11:22:33.597Z,99658.63
2022-10-07T11:33:08.226Z,99642.61
2022-10-07T11:43:44.062Z,99620.63
2022-10-07T11:54:18.244Z,99602.05
2022-10-07T12:04:46.335Z,99582.64
2022-10-07T12:15:28.854Z,99570.17
2022-10-07T12:25:58.854Z,99559.11
2022-10-07T12:36:31.328Z,99548.41
2022-10-07T12:47:05.190Z,99525.36
2022-10-07T12:57:37.301Z,99513.71
2022-10-07T13:08:37.481Z,99499.88
2022-10-07T13:19:12.157Z,99484.06
2022-10-07T13:29:40.798Z,99467.61
2022-10-07T13:40:26.747Z,99446.65
2022-10-07T13:50:58.702Z,99437.17
2022-10-07T14:01:30.197Z,99423.08
2022-10-07T14:12:02.330Z,99400.86
2022-10-07T14:22:35.643Z,99384.96
2022-10-07T14:33:29.038Z,99368.29
2022-10-07T14:44:00.456Z,99360.79
2022-10-07T14:54:29.160Z,99354.82
2022-10-07T15:04:57.167Z,99347.67
2022-10-07T15:15:25.322Z,99339.46
2022-10-07T15:25:54.259Z,99337.84
2022-10-07T15:36:22.803Z,99329.35
2022-10-07T15:46:55.021Z,99323.11
2022-10-07T15:57:24.558Z,99313.50
2022-10-07T16:07:52.732Z,99306.60
2022-10-07T16:18:20.753Z,99300.80
2022-10-07T16:29:07.671Z,99298.77
2022-10-07T16:39:35.746Z,99288.73
2022-10-07T16:50:08.756Z,99290.35
2022-10-07T17:00:39.147Z,99284.65
2022-10-07T17:11:07.742Z,99279.27
2022-10-07T17:21:37.133Z,99278.17
2022-10-07T17:32:05.285Z,99270.27
2022-10-07T17:42:33.492Z,99270.27
2022-10-07T17:53:01.686Z,99268.61
2022-10-07T18:03:29.769Z,99265.57
2022-10-07T18:14:15.382Z,99259.59
2022-10-07T18:24:43.650Z,99253.30
2022-10-07T18:35:12.149Z,99246.98
2022-10-07T18:45:40.263Z,99236.32
2022-10-07T18:56:11.666Z,99233.02
2022-10-07T19:06:43.975Z,99223.82
2022-10-07T19:17:12.622Z,99223.73
2022-10-07T19:27:40.819Z,99223.79
2022-10-07T19:38:09.263Z,99214.28
2022-10-07T19:48:38.749Z,99213.23
2022-10-07T19:59:09.221Z,99205.92
2022-10-07T20:09:37.233Z,99202.66
2022-10-07T20:20:05.575Z,99204.16
2022-10-07T20:30:35.354Z,99200.36
2022-10-07T20:41:20.685Z,99193.53
2022-10-07T20:51:48.718Z,99187.80
2022-10-07T21:02:18.634Z,99186.99
2022-10-07T21:12:46.952Z,99193.25
2022-10-07T21:23:15.029Z,99190.84
2022-10-07T21:33:43.178Z,99190.00
2022-10-07T21:44:14.351Z,99187.42
2022-10-07T21:54:42.407Z,99188.34
2022-10-07T22:05:11.760Z,99172.64
2022-10-07T22:15:40.051Z,99162.16
2022-10-07T22:26:12.496Z,99156.69
2022-10-07T22:36:40.568Z,99144.63
2022-10-07T22:47:08.774Z,99136.25
2022-10-07T22:57:37.699Z,99131.59
2022-10-07T23:08:06.150Z,99127.63
2022-10-07T23:18:34.565Z,99117.65
2022-10-07T23:29:03.569Z,99118.35
2022-10-07T23:39:31.516Z,99111.86
2022-10-07T23:49:57.970Z,99102.42
